Time;durP1;ratioP1;P1;durP2;ratioP2;P2;SDS_P1;SDS_P2;PMS_P1;PMS_P2;Temp;Humidity;BMP_temperature;BMP_pressure;BME280_temperature;BME280_humidity;BME280_pressure;Samples;Min_cycle;Max_cycle;Signal;HPM_P1;HPM_P2
2021/12/24 00:00:26;;;;;;;29.75;13.43;;;;;;;3.27;100.00;95581.59;5026608;28;20472;-72
2021/12/24 00:02:54;;;;;;;41.30;16.27;;;;;;;3.23;100.00;95567.19;5044110;28;20131;-72
2021/12/24 00:05:21;;;;;;;34.13;15.70;;;;;;;3.21;100.00;95571.91;5044862;28;20036;-72
2021/12/24 00:07:46;;;;;;;35.70;16.15;;;;;;;3.21;100.00;95571.91;5043969;28;20047;-73
2021/12/24 00:10:13;;;;;;;49.85;17.30;;;;;;;3.23;100.00;95570.66;5043159;28;20041;-71
2021/12/24 00:12:44;;;;;;;44.17;15.45;;;;;;;3.27;100.00;95574.47;5044331;28;20036;-73
2021/12/24 00:18:01;;;;;;;33.83;14.23;;;;;;;3.32;100.00;95573.78;5042864;28;20019;-72
2021/12/24 00:21:32;;;;;;;30.23;12.95;;;;;;;3.31;100.00;95582.75;5045420;28;20364;-73
2021/12/24 00:35:06;;;;;;;33.63;15.57;;;;;;;3.29;100.00;95580.34;5041278;28;20041;-71
2021/12/24 00:37:05;;;;;;;33.20;15.32;;;;;;;3.37;100.00;95578.41;5042698;28;20041;-71
2021/12/24 00:39:33;;;;;;;29.35;10.93;;;;;;;3.40;100.00;95578.75;5043752;28;20033;-71
2021/12/24 00:41:58;;;;;;;29.08;13.68;;;;;;;3.45;100.00;95580.75;5043471;28;20052;-71
2021/12/24 00:44:24;;;;;;;30.40;13.40;;;;;;;3.46;100.00;95567.28;5025952;28;20400;-72
2021/12/24 00:46:50;;;;;;;28.15;11.52;;;;;;;3.50;100.00;95565.81;5043738;28;20094;-72
2021/12/24 00:49:17;;;;;;;30.75;14.95;;;;;;;3.56;100.00;95566.72;5043544;28;20246;-71
2021/12/24 00:51:55;;;;;;;33.05;14.65;;;;;;;3.58;100.00;95554.06;5043597;28;20036;-71
2021/12/24 00:57:05;;;;;;;31.00;13.88;;;;;;;3.68;100.00;95546.41;5025579;28;20064;-71
2021/12/24 00:59:31;;;;;;;23.92;11.63;;;;;;;3.72;100.00;95544.09;5043157;28;20472;-71
2021/12/24 01:02:03;;;;;;;15.27;7.75;;;;;;;3.75;100.00;95544.47;5040925;28;20067;-71
2021/12/24 01:04:28;;;;;;;24.67;12.18;;;;;;;3.78;100.00;95538.72;5043253;28;20035;-73
2021/12/24 01:06:54;;;;;;;26.60;13.30;;;;;;;3.81;100.00;95540.09;5042423;28;20033;-71
2021/12/24 01:09:20;;;;;;;30.13;14.18;;;;;;;3.82;100.00;95539.88;5024506;28;20048;-71
2021/12/24 01:11:45;;;;;;;25.27;11.95;;;;;;;3.82;100.00;95545.19;5043280;28;20041;-73
2021/12/24 01:14:11;;;;;;;28.17;13.48;;;;;;;3.85;100.00;95543.91;5041335;28;20082;-71
2021/12/24 01:16:48;;;;;;;24.95;11.60;;;;;;;3.87;100.00;95550.56;5021101;28;20029;-73
2021/12/24 01:19:19;;;;;;;19.45;9.63;;;;;;;3.89;100.00;95550.34;5041797;28;20387;-71
2021/12/24 01:24:40;;;;;;;15.63;7.20;;;;;;;3.96;100.00;95524.56;5041843;28;20423;-72
2021/12/24 01:27:19;;;;;;;19.65;9.00;;;;;;;4.05;100.00;95527.72;5041396;28;20049;-72
2021/12/24 01:30:05;;;;;;;21.80;9.02;;;;;;;4.07;100.00;95529.09;5043994;28;20040;-73
2021/12/24 01:38:10;;;;;;;33.20;11.00;;;;;;;4.18;100.00;95527.47;5040265;28;20491;-71
2021/12/24 01:41:05;;;;;;;15.77;7.18;;;;;;;4.18;100.00;95527.47;5042133;28;20562;-72
2021/12/24 01:43:31;;;;;;;18.10;8.93;;;;;;;4.21;100.00;95527.00;5041734;28;20078;-72
2021/12/24 01:46:00;;;;;;;23.83;9.98;;;;;;;4.24;100.00;95512.50;5028095;28;20285;-71
2021/12/24 01:48:25;;;;;;;21.67;10.70;;;;;;;4.26;100.00;95513.06;5044934;28;20098;-72
2021/12/24 01:50:53;;;;;;;20.42;10.07;;;;;;;4.29;100.00;95539.09;5045137;28;20049;-74
2021/12/24 01:53:24;;;;;;;28.00;11.02;;;;;;;4.32;100.00;95515.59;5025959;28;20039;-71
2021/12/24 01:55:55;;;;;;;17.58;7.72;;;;;;;4.36;100.00;95513.31;5041869;28;20108;-71
2021/12/24 01:58:24;;;;;;;10.85;5.60;;;;;;;4.39;100.00;95520.78;5040904;28;20033;-72
2021/12/24 02:00:53;;;;;;;18.45;8.70;;;;;;;4.39;100.00;95516.28;5025701;28;20033;-71
2021/12/24 02:03:19;;;;;;;21.10;9.43;;;;;;;4.39;100.00;95507.53;5043348;28;20041;-71
2021/12/24 02:05:46;;;;;;;15.57;7.90;;;;;;;4.44;100.00;95521.69;5041716;28;20053;-73
2021/12/24 02:08:13;;;;;;;22.67;9.82;;;;;;;4.46;100.00;95516.97;5040044;28;20146;-73
2021/12/24 02:10:39;;;;;;;21.95;7.90;;;;;;;4.49;100.00;95518.34;5029162;28;20040;-72
2021/12/24 02:13:05;;;;;;;12.48;5.68;;;;;;;4.48;100.00;95538.72;5023427;28;20099;-72
2021/12/24 02:28:53;;;;;;;12.40;6.57;;;;;;;4.49;100.00;95502.44;5041569;28;20423;-71
2021/12/24 02:31:22;;;;;;;16.15;7.07;;;;;;;4.48;100.00;95496.34;5040408;28;20091;-71
2021/12/24 02:33:48;;;;;;;14.80;7.63;;;;;;;4.51;100.00;95483.66;5026479;28;20037;-72
2021/12/24 02:36:15;;;;;;;12.60;5.28;;;;;;;4.49;100.00;95486.53;5040864;28;20437;-71
2021/12/24 02:38:42;;;;;;;16.40;8.65;;;;;;;4.52;100.00;95480.00;5042135;28;20037;-72
2021/12/24 02:41:11;;;;;;;11.00;5.60;;;;;;;4.47;100.00;95476.19;5041594;28;20064;-71
2021/12/24 02:43:39;;;;;;;15.70;8.00;;;;;;;4.53;100.00;95471.81;5042038;28;20041;-71
2021/12/24 02:46:09;;;;;;;12.52;6.00;;;;;;;4.53;100.00;95463.06;5041225;28;20040;-71
2021/12/24 02:54:13;;;;;;;16.02;6.35;;;;;;;4.61;100.00;95460.03;5041924;28;20123;-71
2021/12/24 02:56:40;;;;;;;11.27;5.60;;;;;;;4.62;100.00;95457.16;5045813;28;20032;-72
2021/12/24 02:59:13;;;;;;;7.68;3.53;;;;;;;4.63;100.00;95472.00;5027369;28;20041;-71
2021/12/24 03:01:42;;;;;;;10.27;5.10;;;;;;;4.63;100.00;95458.75;5019318;28;20053;-72
2021/12/24 03:04:09;;;;;;;11.00;4.47;;;;;;;4.66;100.00;95462.75;5044919;28;20059;-71
2021/12/24 03:06:42;;;;;;;12.25;5.40;;;;;;;4.66;100.00;95466.22;5045371;28;20033;-72
2021/12/24 03:09:12;;;;;;;11.55;5.15;;;;;;;4.67;100.00;95467.03;5027291;28;20079;-71
2021/12/24 03:11:38;;;;;;;6.80;3.78;;;;;;;4.65;100.00;95458.50;5043530;28;20029;-71
2021/12/24 03:14:06;;;;;;;10.95;3.33;;;;;;;4.66;100.00;95466.22;5044722;28;20295;-73
2021/12/24 03:16:32;;;;;;;9.48;4.60;;;;;;;4.67;100.00;95459.06;5045111;28;20094;-71
2021/12/24 03:18:58;;;;;;;7.95;4.50;;;;;;;4.67;100.00;95462.56;5043969;28;20448;-71
2021/12/24 03:21:30;;;;;;;4.53;2.38;;;;;;;4.66;100.00;95463.56;5031419;28;20033;-72
2021/12/24 03:26:29;;;;;;;6.10;2.83;;;;;;;4.70;100.00;95440.88;5044970;28;20057;-71
2021/12/24 03:28:55;;;;;;;6.57;3.47;;;;;;;4.70;100.00;95435.56;5027451;28;20512;-73
2021/12/24 03:31:21;;;;;;;7.40;3.55;;;;;;;4.73;100.00;95444.88;5042743;28;20034;-73
2021/12/24 03:33:48;;;;;;;4.60;2.30;;;;;;;4.72;100.00;95467.94;5021068;28;20051;-72
2021/12/24 03:36:15;;;;;;;7.50;3.20;;;;;;;4.74;100.00;95435.88;5036442;28;20592;-72
2021/12/24 03:38:42;;;;;;;6.20;2.90;;;;;;;4.74;100.00;95435.88;5030310;28;20033;-72
2021/12/24 03:41:07;;;;;;;4.63;2.03;;;;;;;4.75;100.00;95440.97;5043240;28;20029;-73
2021/12/24 03:43:33;;;;;;;5.38;2.67;;;;;;;4.75;100.00;95430.38;5022118;28;20041;-71
2021/12/24 03:46:05;;;;;;;5.32;2.60;;;;;;;4.73;100.00;95429.78;5043414;28;20041;-72
2021/12/24 03:49:14;;;;;;;4.95;2.47;;;;;;;4.76;100.00;95439.13;5043374;28;20029;-71
2021/12/24 03:56:37;;;;;;;9.68;2.63;;;;;;;4.74;100.00;95434.03;5043939;28;20079;-72
2021/12/24 03:59:05;;;;;;;3.97;1.75;;;;;;;4.71;100.00;95415.97;5043461;28;20432;-72
2021/12/24 04:01:48;;;;;;;5.28;2.63;;;;;;;4.71;100.00;95423.94;5044467;28;20033;-71
2021/12/24 04:04:32;;;;;;;5.65;2.92;;;;;;;4.73;100.00;95418.38;5044645;28;20047;-72
2021/12/24 04:07:15;;;;;;;5.05;2.65;;;;;;;4.72;100.00;95412.28;5044087;28;20032;-73
2021/12/24 04:10:36;;;;;;;5.35;2.47;;;;;;;4.71;100.00;95423.94;5044225;28;20044;-72
2021/12/24 04:13:40;;;;;;;8.02;2.17;;;;;;;4.71;100.00;95415.97;5041175;28;20087;-73
2021/12/24 04:16:07;;;;;;;5.47;2.67;;;;;;;4.73;100.00;95407.78;5027138;28;20037;-71
2021/12/24 04:18:55;;;;;;;5.72;2.42;;;;;;;4.75;100.00;95419.78;5043297;28;20029;-72
2021/12/24 04:26:49;;;;;;;7.30;2.30;;;;;;;4.78;100.00;95412.38;5043094;28;20029;-72
2021/12/24 04:29:15;;;;;;;7.43;2.30;;;;;;;4.82;100.00;95405.56;5026824;28;20104;-71
2021/12/24 04:32:06;;;;;;;7.82;2.30;;;;;;;4.81;100.00;95422.50;5030922;28;20338;-71
2021/12/24 04:34:51;;;;;;;8.38;1.67;;;;;;;4.83;100.00;95421.25;5034747;28;20488;-71
2021/12/24 05:01:52;;;;;;;5.88;2.10;;;;;;;4.82;100.00;95438.16;5044300;28;20250;-73
2021/12/24 05:04:25;;;;;;;8.13;2.65;;;;;;;4.81;100.00;95431.25;5042859;28;20040;-71
2021/12/24 05:06:57;;;;;;;5.53;2.50;;;;;;;4.82;100.00;95443.47;5042749;28;20029;-72
2021/12/24 05:09:24;;;;;;;;;;;;;;;4.83;100.00;95437.16;5042299;28;20507;-71
2021/12/24 05:11:51;;;;;;;7.63;2.50;;;;;;;4.82;100.00;95430.22;5025772;28;20326;-71
2021/12/24 05:14:18;;;;;;;11.15;2.60;;;;;;;4.85;100.00;95431.59;5038337;28;20040;-71
2021/12/24 05:17:03;;;;;;;5.03;1.77;;;;;;;4.83;100.00;95439.00;5024846;28;20031;-71
2021/12/24 05:22:50;;;;;;;5.78;1.80;;;;;;;4.82;100.00;95432.06;5041289;28;20056;-71
2021/12/24 05:25:18;;;;;;;8.95;2.40;;;;;;;4.82;100.00;95432.84;5041933;28;20048;-71
2021/12/24 05:27:44;;;;;;;9.95;2.85;;;;;;;4.86;100.00;95443.81;5025836;28;20111;-72
2021/12/24 05:30:10;;;;;;;6.75;2.55;;;;;;;4.85;100.00;95426.31;5027935;28;20368;-72
2021/12/24 05:32:37;;;;;;;7.68;2.75;;;;;;;4.88;100.00;95415.22;5043090;28;20384;-72
2021/12/24 05:35:04;;;;;;;8.43;3.33;;;;;;;4.86;100.00;95401.41;5042285;28;20082;-73
2021/12/24 05:37:33;;;;;;;14.25;3.42;;;;;;;4.86;100.00;95412.81;5042849;28;20040;-71
2021/12/24 05:39:58;;;;;;;10.77;3.15;;;;;;;4.87;100.00;95418.91;5042081;28;20383;-72
2021/12/24 05:42:31;;;;;;;16.55;2.97;;;;;;;4.88;100.00;95410.72;5025324;28;20029;-71
2021/12/24 05:45:03;;;;;;;16.38;4.45;;;;;;;4.87;100.00;95411.75;5042030;28;20071;-72
2021/12/24 05:48:01;;;;;;;15.88;4.15;;;;;;;4.88;100.00;95423.16;5007807;28;20286;-71
2021/12/24 05:50:27;;;;;;;9.55;3.88;;;;;;;4.86;100.00;95417.31;5024371;28;20522;-71
2021/12/24 05:53:11;;;;;;;5.10;2.53;;;;;;;4.88;100.00;95433.78;5041440;28;20616;-71
2021/12/24 05:55:51;;;;;;;4.13;2.20;;;;;;;4.99;100.00;95425.78;5025486;28;20175;-71
2021/12/24 05:58:20;;;;;;;9.57;2.90;;;;;;;5.04;100.00;95430.34;5042337;28;20451;-72
2021/12/24 06:00:48;;;;;;;8.15;3.20;;;;;;;5.08;100.00;95436.78;5027526;28;20055;-73
2021/12/24 06:03:15;;;;;;;7.43;2.50;;;;;;;5.10;100.00;95426.75;5024386;28;20025;-71
2021/12/24 06:05:41;;;;;;;9.20;2.70;;;;;;;5.09;100.00;95435.75;5041942;28;20037;-71
2021/12/24 06:08:07;;;;;;;4.93;2.20;;;;;;;5.10;100.00;95429.41;5041459;28;20147;-71
2021/12/24 06:10:34;;;;;;;7.90;2.67;;;;;;;5.07;100.00;95424.59;5041472;28;20120;-72
2021/12/24 06:13:01;;;;;;;9.13;2.80;;;;;;;5.13;100.00;95425.44;5040398;28;20146;-73
2021/12/24 06:15:27;;;;;;;6.30;2.67;;;;;;;5.15;100.00;95442.75;5041791;28;20400;-73
2021/12/24 06:17:56;;;;;;;2.88;1.50;;;;;;;5.14;100.00;95430.53;5043239;28;20060;-71
2021/12/24 06:20:22;;;;;;;6.43;2.28;;;;;;;5.15;100.00;95434.00;5042037;28;20041;-71
2021/12/24 06:22:48;;;;;;;11.07;2.95;;;;;;;5.16;100.00;95431.09;5042573;28;20353;-71
2021/12/24 06:25:16;;;;;;;7.78;3.00;;;;;;;5.15;100.00;95436.66;5042136;28;20041;-71
2021/12/24 06:27:43;;;;;;;7.00;2.30;;;;;;;5.12;100.00;95429.97;5042305;28;20033;-71
2021/12/24 06:30:10;;;;;;;4.32;1.70;;;;;;;5.12;100.00;95442.41;5045722;28;20550;-73
2021/12/24 06:32:35;;;;;;;12.15;3.10;;;;;;;5.13;100.00;95434.22;5045494;28;20056;-71
2021/12/24 06:35:01;;;;;;;10.65;2.90;;;;;;;5.13;100.00;95438.72;5046713;28;20029;-71
2021/12/24 06:37:26;;;;;;;8.93;2.83;;;;;;;5.15;100.00;95434.81;5044499;28;20055;-71
2021/12/24 06:39:52;;;;;;;6.25;2.13;;;;;;;5.14;100.00;95441.16;5045717;28;20044;-72
2021/12/24 06:42:18;;;;;;;6.93;2.42;;;;;;;5.15;100.00;95453.38;5025987;28;20044;-71
2021/12/24 06:44:43;;;;;;;10.77;2.53;;;;;;;5.15;100.00;95463.97;5047116;28;20613;-71
2021/12/24 06:47:09;;;;;;;7.55;2.80;;;;;;;5.11;100.00;95456.72;5045209;28;20037;-71
2021/12/24 06:49:35;;;;;;;6.90;2.50;;;;;;;5.14;100.00;95445.66;5046746;28;20483;-71
2021/12/24 06:52:01;;;;;;;7.35;2.80;;;;;;;5.14;100.00;95445.66;5044617;28;20143;-71
2021/12/24 06:54:27;;;;;;;7.47;2.75;;;;;;;5.16;100.00;95436.41;5043950;28;20037;-73
2021/12/24 06:56:53;;;;;;;11.35;3.25;;;;;;;5.16;100.00;95443.56;5035906;28;20029;-71
2021/12/24 06:59:19;;;;;;;8.05;2.60;;;;;;;5.14;100.00;95446.47;5044574;28;20033;-73
2021/12/24 07:01:46;;;;;;;10.40;3.20;;;;;;;5.16;100.00;95446.22;5043178;28;20047;-72
2021/12/24 07:04:12;;;;;;;7.70;2.50;;;;;;;5.15;100.00;95436.66;5031492;28;20041;-72
2021/12/24 07:06:45;;;;;;;5.80;1.55;;;;;;;5.17;100.00;95440.66;5045018;28;20037;-73
2021/12/24 07:09:11;;;;;;;5.47;2.47;;;;;;;5.19;100.00;95453.69;5043099;28;20118;-72
2021/12/24 07:11:37;;;;;;;11.10;3.00;;;;;;;5.13;100.00;95436.06;5044714;28;20040;-73
2021/12/24 07:14:03;;;;;;;7.30;3.13;;;;;;;5.16;100.00;95444.38;5044341;28;20150;-73
2021/12/24 07:16:28;;;;;;;4.93;2.15;;;;;;;5.14;100.00;95451.75;5043851;28;20136;-73
2021/12/24 07:18:54;;;;;;;8.73;3.40;;;;;;;5.14;100.00;95446.47;5043546;28;20450;-74
2021/12/24 07:21:19;;;;;;;6.28;2.58;;;;;;;5.10;100.00;95455.13;5046149;28;20036;-71
2021/12/24 07:23:45;;;;;;;9.68;3.03;;;;;;;5.15;100.00;95452.56;5046668;28;20472;-72
2021/12/24 07:26:10;;;;;;;6.85;3.03;;;;;;;5.14;100.00;95457.06;5046234;28;20039;-72
2021/12/24 07:28:36;;;;;;;9.05;3.15;;;;;;;5.13;100.00;95468.69;5046203;28;20080;-71
2021/12/24 07:31:02;;;;;;;8.85;2.90;;;;;;;5.14;100.00;95457.06;5025736;28;20053;-71
2021/12/24 07:33:27;;;;;;;11.68;3.10;;;;;;;5.15;100.00;95447.25;5045259;28;20127;-71
2021/12/24 07:35:53;;;;;;;7.70;2.08;;;;;;;5.14;100.00;95457.06;5044586;28;20476;-71
2021/12/24 07:38:18;;;;;;;8.13;2.83;;;;;;;5.11;100.00;95462.81;5044229;28;20033;-71
2021/12/24 07:40:46;;;;;;;8.55;3.05;;;;;;;5.15;100.00;95463.97;5044632;28;20047;-73
2021/12/24 07:43:12;;;;;;;6.13;2.55;;;;;;;5.12;100.00;95472.38;5044120;28;20041;-71
2021/12/24 07:45:39;;;;;;;3.83;1.80;;;;;;;5.14;100.00;95472.19;5045040;28;20032;-72
2021/12/24 07:48:14;;;;;;;10.05;2.67;;;;;;;5.17;100.00;95471.69;5045059;28;20033;-71
2021/12/24 07:53:12;;;;;;;14.10;2.70;;;;;;;5.18;100.00;95473.28;5045102;28;20120;-73
2021/12/24 07:55:39;;;;;;;6.88;3.10;;;;;;;5.18;100.00;95468.78;5045864;28;20156;-71
2021/12/24 07:58:06;;;;;;;8.77;2.83;;;;;;;5.19;100.00;95486.31;5044553;28;20249;-73
2021/12/24 08:00:32;;;;;;;10.45;3.05;;;;;;;5.20;100.00;95487.91;5045648;28;20033;-71
2021/12/24 08:03:01;;;;;;;11.93;3.13;;;;;;;5.19;100.00;95478.34;5044668;28;20367;-71
2021/12/24 08:05:27;;;;;;;11.65;3.10;;;;;;;5.20;100.00;95485.25;5044715;28;20563;-73
2021/12/24 08:07:54;;;;;;;5.93;2.60;;;;;;;5.21;100.00;95483.41;5045917;28;20040;-70
2021/12/24 08:10:25;;;;;;;8.32;2.58;;;;;;;5.24;100.00;95485.59;5044520;28;20029;-72
2021/12/24 08:12:51;;;;;;;11.33;2.80;;;;;;;5.25;100.00;95488.03;5043838;28;20044;-72
2021/12/24 08:15:17;;;;;;;5.93;3.03;;;;;;;5.26;100.00;95481.66;5042996;28;20303;-71
2021/12/24 08:17:44;;;;;;;10.45;2.80;;;;;;;5.26;100.00;95476.34;5043499;28;20047;-71
2021/12/24 08:20:11;;;;;;;8.82;2.63;;;;;;;5.22;100.00;95464.63;5044477;28;20045;-71
2021/12/24 08:22:37;;;;;;;8.32;2.83;;;;;;;5.24;100.00;95472.34;5045725;28;20541;-73
2021/12/24 08:25:08;;;;;;;6.15;2.70;;;;;;;5.22;100.00;95471.78;5046573;28;20049;-72
2021/12/24 08:27:34;;;;;;;13.15;3.80;;;;;;;5.20;100.00;95472.00;5044341;28;20490;-72
2021/12/24 08:30:01;;;;;;;7.57;2.78;;;;;;;5.15;100.00;95463.97;5043135;28;20048;-72
2021/12/24 08:32:26;;;;;;;8.07;3.20;;;;;;;5.14;100.00;95457.06;5042685;28;20072;-71
2021/12/24 08:34:53;;;;;;;8.88;3.13;;;;;;;5.14;100.00;95465.03;5037043;28;20084;-71
2021/12/24 08:37:19;;;;;;;9.93;3.13;;;;;;;5.17;100.00;95461.88;5043415;28;20528;-71
2021/12/24 08:39:44;;;;;;;8.35;3.15;;;;;;;5.17;100.00;95469.03;5044063;28;20117;-71
2021/12/24 08:42:10;;;;;;;8.02;3.10;;;;;;;5.10;100.00;95460.41;5044424;28;20052;-71
2021/12/24 08:44:37;;;;;;;9.38;2.75;;;;;;;5.12;100.00;95475.03;5044267;28;20075;-71
2021/12/24 08:47:04;;;;;;;9.45;2.97;;;;;;;5.13;100.00;95484.59;5042775;28;20439;-71
2021/12/24 08:49:31;;;;;;;11.07;2.55;;;;;;;5.13;100.00;95478.50;5044252;28;20068;-71
2021/12/24 08:51:57;;;;;;;10.45;3.00;;;;;;;5.14;100.00;95482.78;5042580;28;20468;-71
2021/12/24 08:54:24;;;;;;;9.52;2.83;;;;;;;5.15;100.00;95477.25;5043785;28;20044;-71
2021/12/24 08:56:51;;;;;;;9.48;2.75;;;;;;;5.15;100.00;95461.31;5042520;28;20101;-73
2021/12/24 08:59:17;;;;;;;7.05;1.98;;;;;;;5.19;100.00;95464.28;5042158;28;20033;-71
2021/12/24 09:01:43;;;;;;;11.13;3.10;;;;;;;5.19;100.00;95459.78;5042541;28;20029;-72
2021/12/24 09:04:09;;;;;;;8.35;2.58;;;;;;;5.22;100.00;95456.69;5043395;28;20044;-71
2021/12/24 09:06:35;;;;;;;9.02;2.22;;;;;;;5.23;100.00;95454.81;5042761;28;20044;-71
2021/12/24 09:09:02;;;;;;;5.07;2.30;;;;;;;5.27;100.00;95456.75;5042771;28;20455;-71
2021/12/24 09:11:27;;;;;;;7.70;2.13;;;;;;;5.31;100.00;95441.97;5042408;28;20068;-73
2021/12/24 09:13:53;;;;;;;8.30;2.45;;;;;;;5.38;100.00;95444.47;5042338;28;20068;-71
2021/12/24 09:16:18;;;;;;;7.90;2.38;;;;;;;5.37;100.00;95442.03;5034194;28;20025;-71
2021/12/24 09:18:44;;;;;;;11.18;2.42;;;;;;;5.40;100.00;95436.28;5042847;28;20036;-71
2021/12/24 09:21:15;;;;;;;6.90;2.20;;;;;;;5.37;100.00;95442.03;5043464;28;20071;-71
2021/12/24 09:23:46;;;;;;;8.75;2.00;;;;;;;5.40;100.00;95441.56;5043856;28;20052;-71
2021/12/24 09:26:12;;;;;;;12.63;2.15;;;;;;;5.42;100.00;95434.19;5043806;28;20041;-71
2021/12/24 09:28:37;;;;;;;6.93;1.92;;;;;;;5.43;100.00;95443.75;5043699;28;20040;-72
2021/12/24 09:31:03;;;;;;;11.18;2.67;;;;;;;5.48;100.00;95435.88;5042322;28;20053;-73
2021/12/24 09:33:28;;;;;;;6.18;2.20;;;;;;;5.50;100.00;95431.13;5042544;28;20035;-71
2021/12/24 09:35:54;;;;;;;8.52;2.90;;;;;;;5.54;100.00;95440.22;5043624;28;20115;-71
2021/12/24 09:38:19;;;;;;;11.10;2.08;;;;;;;5.53;100.00;95428.00;5043490;28;20502;-71
2021/12/24 09:40:45;;;;;;;10.32;2.10;;;;;;;5.61;100.00;95424.94;5042769;28;20036;-71
2021/12/24 09:43:10;;;;;;;8.00;2.50;;;;;;;5.68;100.00;95419.44;5042133;28;20048;-72
2021/12/24 09:45:36;;;;;;;6.50;1.90;;;;;;;5.66;100.00;95422.34;5043143;28;20189;-71
2021/12/24 09:48:02;;;;;;;8.85;2.33;;;;;;;5.66;100.00;95419.69;5042943;28;20049;-71
2021/12/24 09:50:28;;;;;;;12.25;2.40;;;;;;;5.66;100.00;95430.31;5024745;28;20304;-72
2021/12/24 09:52:54;;;;;;;6.78;2.70;;;;;;;5.63;100.00;95427.34;5042499;28;20091;-73
2021/12/24 09:55:23;;;;;;;11.32;2.60;;;;;;;5.63;100.00;95427.34;5043201;28;20320;-71
2021/12/24 09:57:49;;;;;;;13.40;3.22;;;;;;;5.58;100.00;95420.09;5042625;28;20220;-73
2021/12/24 10:00:18;;;;;;;12.02;3.10;;;;;;;5.64;100.00;95421.78;5022326;28;20043;-71
2021/12/24 10:02:47;;;;;;;7.47;2.42;;;;;;;5.67;100.00;95423.94;5044129;28;20048;-71
2021/12/24 10:05:28;;;;;;;10.43;3.00;;;;;;;5.73;100.00;95417.69;5045846;28;20795;-71
2021/12/24 10:08:19;;;;;;;6.13;2.42;;;;;;;5.79;100.00;95429.19;5045187;28;20327;-71
2021/12/24 10:10:47;;;;;;;10.32;3.15;;;;;;;5.84;100.00;95431.94;5048238;28;20220;-72
2021/12/24 10:13:32;;;;;;;10.90;3.28;;;;;;;5.86;100.00;95429.81;5048336;28;20036;-71
2021/12/24 10:16:15;;;;;;;8.73;2.58;;;;;;;5.76;100.00;95425.19;5047809;28;20097;-71
2021/12/24 10:18:47;;;;;;;12.23;3.22;;;;;;;5.77;100.00;95424.13;5045861;28;20163;-71
2021/12/24 10:21:16;;;;;;;10.80;3.95;;;;;;;5.87;100.00;95424.25;5046007;28;20041;-71
2021/12/24 10:23:57;;;;;;;13.75;3.70;;;;;;;5.88;100.00;95422.41;5045920;28;20082;-71
2021/12/24 10:26:35;;;;;;;12.35;3.58;;;;;;;5.95;100.00;95419.63;5044502;28;20120;-72
2021/12/24 10:29:10;;;;;;;12.75;3.90;;;;;;;5.91;100.00;95410.53;5044017;28;20068;-71
2021/12/24 10:31:43;;;;;;;14.52;4.00;;;;;;;5.77;100.00;95410.06;5043956;28;20140;-71
2021/12/24 10:34:14;;;;;;;13.25;3.95;;;;;;;5.81;100.00;95409.31;5046081;28;20052;-71
2021/12/24 10:37:22;;;;;;;11.70;4.45;;;;;;;5.87;100.00;95404.88;5045381;28;20025;-73
2021/12/24 10:39:49;;;;;;;8.77;3.08;;;;;;;5.79;100.00;95411.41;5029257;28;20055;-73
2021/12/24 10:42:20;;;;;;;12.45;4.22;;;;;;;5.70;100.00;95410.22;5044763;28;20037;-71
2021/12/24 10:44:47;;;;;;;15.98;3.42;;;;;;;5.66;100.00;95403.78;5046040;28;20094;-71
2021/12/24 10:47:13;;;;;;;11.05;3.28;;;;;;;5.67;100.00;95404.56;5043146;28;20128;-72
2021/12/24 10:50:06;;;;;;;12.80;3.47;;;;;;;5.64;100.00;95408.53;5044228;28;20150;-72
2021/12/24 10:55:18;;;;;;;7.32;3.15;;;;;;;5.65;100.00;95407.47;5044266;28;20372;-71
2021/12/24 10:57:46;;;;;;;14.63;4.05;;;;;;;5.61;100.00;95385.13;5046289;28;20028;-71
2021/12/24 11:00:19;;;;;;;12.40;3.15;;;;;;;5.67;100.00;95396.59;5044460;28;20519;-73
2021/12/24 11:02:51;;;;;;;8.75;3.10;;;;;;;5.76;100.00;95397.81;5044467;28;20033;-71
2021/12/24 11:05:28;;;;;;;14.32;4.43;;;;;;;5.69;100.00;95395.34;5044147;28;20112;-71
2021/12/24 11:07:57;;;;;;;11.38;3.50;;;;;;;5.66;100.00;95395.00;5044866;28;20044;-72
2021/12/24 11:10:26;;;;;;;10.27;3.38;;;;;;;5.73;100.00;95396.44;5044796;28;20130;-71
2021/12/24 11:13:08;;;;;;;10.48;4.22;;;;;;;5.77;100.00;95381.66;5044488;28;20391;-71
2021/12/24 11:15:40;;;;;;;11.88;3.17;;;;;;;5.85;100.00;95385.75;5043088;28;20067;-73
2021/12/24 11:18:13;;;;;;;;;;;;;;;5.94;100.00;95388.81;5043602;28;20041;-72
2021/12/24 11:20:39;;;;;;;12.68;3.72;;;;;;;5.97;100.00;95390.97;5044510;28;19917;-72
2021/12/24 11:23:06;;;;;;;9.85;2.88;;;;;;;5.90;100.00;95390.31;5044247;28;20115;-71
2021/12/24 11:25:36;;;;;;;11.00;4.28;;;;;;;5.91;100.00;95391.94;5045646;28;20049;-73
2021/12/24 11:28:03;;;;;;;13.95;3.47;;;;;;;5.98;100.00;95397.88;5043779;28;20041;-71
2021/12/24 11:30:31;;;;;;;8.65;2.60;;;;;;;6.02;100.00;95401.66;5043749;28;20045;-71
2021/12/24 11:32:57;;;;;;;10.52;2.97;;;;;;;5.99;100.00;95413.59;5045099;28;20045;-71
2021/12/24 11:35:25;;;;;;;11.75;3.55;;;;;;;6.00;100.00;95403.78;5044829;28;20134;-70
2021/12/24 11:37:52;;;;;;;12.65;3.22;;;;;;;6.03;100.00;95411.22;5042716;28;20107;-73
2021/12/24 11:40:19;;;;;;;11.80;3.88;;;;;;;5.98;100.00;95413.81;5045611;28;20076;-71
2021/12/24 11:42:51;;;;;;;8.18;2.45;;;;;;;6.01;100.00;95416.00;5045273;28;20638;-71
2021/12/24 11:45:19;;;;;;;6.97;1.35;;;;;;;5.94;100.00;95399.44;5046522;28;20475;-70
2021/12/24 11:47:45;;;;;;;16.52;3.15;;;;;;;5.91;100.00;95403.34;5037066;28;20033;-70
2021/12/24 11:50:11;;;;;;;10.27;3.25;;;;;;;5.89;100.00;95410.75;5043055;28;20467;-72
2021/12/24 11:52:37;;;;;;;7.53;2.75;;;;;;;5.85;100.00;95397.16;5043534;28;20052;-72
2021/12/24 11:55:04;;;;;;;16.70;3.70;;;;;;;5.79;100.00;95405.28;5043880;28;20040;-73
2021/12/24 11:57:29;;;;;;;13.27;3.60;;;;;;;5.77;100.00;95402.09;5043888;28;20047;-72
2021/12/24 11:59:55;;;;;;;17.83;3.75;;;;;;;5.74;100.00;95392.75;5043150;28;20040;-71
2021/12/24 12:02:35;;;;;;;12.18;3.95;;;;;;;5.83;100.00;95391.28;5044483;28;20048;-70
2021/12/24 12:05:32;;;;;;;12.45;4.05;;;;;;;5.88;100.00;95393.19;5045604;28;20056;-72
2021/12/24 12:08:25;;;;;;;13.80;4.20;;;;;;;5.97;100.00;95381.13;5045785;28;20041;-70
2021/12/24 12:10:55;;;;;;;13.45;3.45;;;;;;;5.95;100.00;95364.66;5042441;28;20055;-71
2021/12/24 12:13:43;;;;;;;19.00;4.15;;;;;;;6.02;100.00;95383.06;5042303;28;20245;-71
2021/12/24 12:16:11;;;;;;;15.32;3.90;;;;;;;5.94;100.00;95378.19;5044647;28;20466;-70
2021/12/24 12:18:48;;;;;;;11.93;3.55;;;;;;;5.95;100.00;95374.47;5044227;28;20496;-72
2021/12/24 12:21:37;;;;;;;14.75;3.72;;;;;;;5.91;100.00;95363.53;5042393;28;20102;-71
2021/12/24 12:26:41;;;;;;;8.23;3.15;;;;;;;6.01;100.00;95360.22;5042767;28;20041;-73
2021/12/24 12:29:25;;;;;;;8.80;3.00;;;;;;;6.04;100.00;95357.88;5043281;28;20098;-71
2021/12/24 12:32:12;;;;;;;13.15;3.70;;;;;;;6.05;100.00;95363.97;5043642;28;20443;-71
2021/12/24 12:34:46;;;;;;;19.38;3.60;;;;;;;6.05;100.00;95361.31;5042416;28;20236;-70
2021/12/24 12:37:15;;;;;;;11.63;2.75;;;;;;;6.06;100.00;95369.03;5041930;28;20048;-71
2021/12/24 12:39:42;;;;;;;11.40;3.80;;;;;;;6.04;100.00;95373.00;5043485;28;20033;-72
2021/12/24 12:42:08;;;;;;;17.50;3.63;;;;;;;6.09;100.00;95367.75;5042071;28;20041;-71
2021/12/24 12:44:37;;;;;;;10.63;3.97;;;;;;;6.10;100.00;95364.06;5043297;28;20482;-72
2021/12/24 12:47:26;;;;;;;17.15;3.63;;;;;;;6.07;100.00;95365.38;5042293;28;20037;-72
2021/12/24 12:50:15;;;;;;;12.65;4.07;;;;;;;6.02;100.00;95362.63;5044007;28;20041;-72
2021/12/24 12:52:41;;;;;;;9.88;3.40;;;;;;;6.00;100.00;95354.13;5044456;28;20045;-70
2021/12/24 12:55:27;;;;;;;11.15;3.55;;;;;;;5.97;100.00;95353.78;5042531;28;20041;-70
2021/12/24 12:58:20;;;;;;;13.68;4.00;;;;;;;5.94;100.00;95348.97;5041294;28;20068;-72
2021/12/24 13:01:02;;;;;;;17.02;3.47;;;;;;;5.93;100.00;95347.38;5043420;28;20491;-71
2021/12/24 13:03:28;;;;;;;19.02;3.15;;;;;;;5.85;100.00;95340.59;5041802;28;20312;-71
2021/12/24 13:06:01;;;;;;;12.10;3.70;;;;;;;5.92;100.00;95341.25;5043404;28;20049;-70
2021/12/24 13:08:29;;;;;;;14.20;3.50;;;;;;;5.88;100.00;95348.88;5042122;28;20052;-71
2021/12/24 13:11:01;;;;;;;9.75;3.22;;;;;;;5.92;100.00;95345.78;5041059;28;20041;-70
2021/12/24 13:13:27;;;;;;;13.60;4.07;;;;;;;5.99;100.00;95339.22;5041686;28;20052;-71
2021/12/24 13:15:54;;;;;;;12.05;3.38;;;;;;;6.03;100.00;95347.50;5043109;28;20037;-71